createdAt,value
2019-06-08T00:02:22.969Z,1.23
2019-06-08T00:04:53.497Z,0.90
2019-06-08T00:07:32.403Z,1.10
2019-06-08T00:10:02.507Z,0.80
2019-06-08T00:12:32.603Z,1.20
2019-06-08T00:15:02.763Z,1.10
2019-06-08T00:17:45.072Z,1.30
2019-06-08T00:20:21.968Z,0.93
2019-06-08T00:23:04.254Z,1.20
2019-06-08T00:25:40.407Z,1.40
2019-06-08T00:28:14.141Z,1.10
2019-06-08T00:30:44.300Z,1.03
2019-06-08T00:33:14.383Z,0.90
2019-06-08T00:35:44.468Z,1.00
2019-06-08T00:38:23.601Z,1.10
2019-06-08T00:40:54.583Z,1.00
2019-06-08T00:43:25.554Z,1.00
2019-06-08T00:45:56.615Z,1.00
2019-06-08T00:48:26.699Z,1.20
2019-06-08T00:50:56.779Z,1.40
2019-06-08T00:53:26.881Z,1.60
2019-06-08T00:55:56.963Z,1.10
2019-06-08T00:58:28.957Z,1.00
2019-06-08T01:01:05.444Z,1.27
2019-06-08T01:03:35.512Z,1.10
2019-06-08T01:06:08.524Z,1.03
2019-06-08T01:08:38.612Z,0.90
2019-06-08T01:11:08.714Z,1.00
2019-06-08T01:13:38.800Z,1.00
2019-06-08T01:16:09.832Z,1.13
2019-06-08T01:18:39.917Z,1.30
2019-06-08T01:21:10.000Z,0.90
2019-06-08T01:23:40.086Z,1.00
2019-06-08T01:26:13.372Z,1.10
2019-06-08T01:28:49.324Z,1.40
2019-06-08T01:31:26.585Z,1.30
2019-06-08T01:33:56.649Z,1.00
2019-06-08T01:36:35.551Z,1.00
2019-06-08T01:39:07.778Z,1.20
2019-06-08T01:41:37.867Z,1.20
2019-06-08T01:44:07.980Z,1.10
2019-06-08T01:46:45.883Z,1.40
2019-06-08T01:49:15.971Z,1.30
2019-06-08T01:51:49.488Z,1.20
2019-06-08T01:54:19.574Z,0.90
2019-06-08T01:56:49.676Z,1.37
2019-06-08T01:59:20.752Z,1.00
2019-06-08T02:01:52.757Z,1.10
2019-06-08T02:04:23.905Z,1.20
2019-06-08T02:06:54.000Z,1.20
2019-06-08T02:09:24.972Z,1.27
2019-06-08T02:11:55.068Z,1.10
2019-06-08T02:14:25.159Z,1.27
2019-06-08T02:16:55.240Z,1.40
2019-06-08T02:19:26.469Z,1.50
2019-06-08T02:21:59.820Z,1.47
2019-06-08T02:24:31.176Z,1.20
2019-06-08T02:27:02.140Z,1.47
2019-06-08T02:29:32.226Z,2.00
2019-06-08T02:32:11.353Z,1.60
2019-06-08T02:34:50.382Z,1.53
2019-06-08T02:37:20.466Z,1.60
2019-06-08T02:39:56.869Z,1.20
2019-06-08T02:42:42.437Z,1.50
2019-06-08T02:45:17.642Z,1.30
2019-06-08T02:47:54.413Z,1.40
2019-06-08T02:50:52.672Z,1.57
2019-06-08T02:53:26.843Z,1.27
2019-06-08T02:55:58.760Z,1.60
2019-06-08T02:58:31.051Z,1.60
2019-06-08T03:01:02.286Z,2.80
2019-06-08T03:03:38.067Z,1.73
2019-06-08T03:06:08.817Z,1.23
2019-06-08T03:08:41.457Z,1.30
2019-06-08T03:11:11.090Z,1.60
2019-06-08T03:13:43.152Z,1.20
2019-06-08T03:16:15.920Z,1.30
2019-06-08T03:18:49.030Z,1.90
2019-06-08T03:21:31.497Z,1.10
2019-06-08T03:24:02.488Z,1.70
2019-06-08T03:26:34.145Z,1.10
2019-06-08T03:29:04.517Z,1.30
2019-06-08T03:31:42.573Z,1.30
2019-06-08T03:34:07.537Z,1.33
2019-06-08T03:36:43.921Z,0.93
2019-06-08T03:39:12.077Z,1.37
2019-06-08T03:41:45.220Z,1.30
2019-06-08T03:44:15.333Z,1.27
2019-06-08T03:46:49.528Z,1.43
2019-06-08T03:49:40.527Z,1.27
2019-06-08T03:51:56.321Z,1.80
2019-06-08T03:54:26.974Z,1.00
2019-06-08T03:56:57.986Z,1.27
2019-06-08T03:59:28.066Z,1.33
2019-06-08T04:02:04.026Z,1.43
2019-06-08T04:04:39.839Z,1.60
2019-06-08T04:07:10.957Z,1.23
2019-06-08T04:09:41.699Z,1.30
2019-06-08T04:12:11.910Z,1.40
2019-06-08T04:14:48.192Z,1.27
2019-06-08T04:17:20.229Z,1.40
2019-06-08T04:20:10.069Z,1.50
2019-06-08T04:22:28.092Z,1.27
2019-06-08T04:25:00.145Z,1.20
2019-06-08T04:27:30.228Z,1.37
2019-06-08T04:30:18.188Z,1.67
2019-06-08T04:32:49.726Z,1.20
2019-06-08T04:35:19.956Z,1.10
2019-06-08T04:37:50.436Z,1.50
2019-06-08T04:40:20.950Z,1.30
2019-06-08T04:42:51.225Z,1.37
2019-06-08T04:45:24.388Z,1.40
2019-06-08T04:47:54.468Z,1.20
2019-06-08T04:50:24.640Z,1.27
2019-06-08T04:52:54.732Z,1.30
2019-06-08T04:55:24.817Z,1.00
2019-06-08T04:57:54.909Z,1.57
2019-06-08T05:00:25.074Z,1.00
2019-06-08T05:02:55.171Z,1.40
2019-06-08T05:05:32.536Z,1.30
2019-06-08T05:08:02.625Z,1.30
2019-06-08T05:10:32.708Z,1.20
2019-06-08T05:13:04.902Z,1.30
2019-06-08T05:15:35.053Z,1.03
2019-06-08T05:18:06.370Z,1.40
2019-06-08T05:20:50.815Z,0.90
2019-06-08T05:23:23.961Z,1.10
2019-06-08T05:25:56.080Z,1.50
2019-06-08T05:28:26.168Z,1.40
2019-06-08T05:30:56.261Z,1.53
2019-06-08T05:33:26.369Z,1.33
2019-06-08T05:36:01.499Z,1.30
2019-06-08T05:38:33.564Z,1.30
2019-06-08T05:41:06.662Z,1.10
2019-06-08T05:43:37.701Z,1.30
2019-06-08T05:46:07.785Z,1.60
2019-06-08T05:48:43.855Z,1.20
2019-06-08T05:51:13.920Z,1.20
2019-06-08T05:53:55.984Z,1.70
2019-06-08T05:56:26.080Z,1.40
2019-06-08T05:59:02.276Z,1.40
2019-06-08T06:01:48.627Z,1.57
2019-06-08T06:04:18.808Z,1.17
2019-06-08T06:06:50.917Z,1.33
2019-06-08T06:09:41.021Z,1.43
2019-06-08T06:12:11.174Z,1.40
2019-06-08T06:14:53.364Z,1.50
2019-06-08T06:17:30.240Z,1.40
2019-06-08T06:20:00.329Z,1.40
2019-06-08T06:22:30.413Z,1.43
2019-06-08T06:25:01.492Z,1.23
2019-06-08T06:27:31.544Z,1.23
2019-06-08T06:30:02.958Z,1.40
2019-06-08T06:32:37.202Z,1.40
2019-06-08T06:35:10.430Z,2.00
2019-06-08T06:37:43.809Z,1.90
2019-06-08T06:40:16.227Z,1.80
2019-06-08T06:42:46.304Z,1.20
2019-06-08T06:45:17.127Z,1.77
2019-06-08T06:47:52.547Z,1.60
2019-06-08T06:50:22.796Z,1.43
2019-06-08T06:52:53.052Z,1.80
2019-06-08T06:55:25.356Z,1.27
2019-06-08T06:57:54.996Z,1.70
2019-06-08T07:00:32.697Z,1.80
2019-06-08T07:03:03.845Z,1.03
2019-06-08T07:05:33.892Z,2.00
2019-06-08T07:08:05.053Z,1.30
2019-06-08T07:10:35.133Z,1.40
2019-06-08T07:13:05.354Z,1.57
2019-06-08T07:15:41.624Z,1.00
2019-06-08T07:18:14.983Z,0.90
2019-06-08T07:20:46.126Z,1.43
2019-06-08T07:23:16.342Z,1.40
2019-06-08T07:25:48.426Z,1.20
2019-06-08T07:28:19.562Z,1.67
2019-06-08T07:30:52.732Z,1.30
2019-06-08T07:33:22.959Z,1.30
2019-06-08T07:35:53.401Z,1.23
2019-06-08T07:38:23.627Z,1.43
2019-06-08T07:41:01.631Z,1.00
2019-06-08T07:43:32.451Z,1.30
2019-06-08T07:46:04.527Z,1.37
2019-06-08T07:48:48.136Z,1.27
2019-06-08T07:51:18.206Z,1.67
2019-06-08T07:53:49.707Z,1.23
2019-06-08T07:56:20.854Z,1.20
2019-06-08T07:58:53.231Z,1.10
2019-06-08T08:01:35.817Z,1.30
2019-06-08T08:04:02.882Z,1.43
2019-06-08T08:06:32.978Z,1.43
2019-06-08T08:09:03.337Z,1.80
2019-06-08T08:11:33.403Z,1.50
2019-06-08T08:14:04.833Z,1.43
2019-06-08T08:16:35.002Z,1.00
2019-06-08T08:19:05.142Z,1.23
2019-06-08T08:21:44.369Z,1.50
2019-06-08T08:24:20.217Z,1.30
2019-06-08T08:26:59.311Z,1.27
2019-06-08T08:29:28.643Z,1.40
2019-06-08T08:32:00.708Z,1.80
2019-06-08T08:34:30.609Z,1.30
2019-06-08T08:37:05.929Z,1.60
2019-06-08T08:39:34.462Z,1.00
2019-06-08T08:42:11.541Z,2.17
2019-06-08T08:44:41.646Z,1.40
2019-06-08T08:47:12.689Z,1.30
2019-06-08T08:49:42.781Z,1.60
2019-06-08T08:52:12.857Z,1.60
2019-06-08T08:54:44.377Z,1.57
2019-06-08T08:57:14.462Z,2.00
2019-06-08T08:59:47.726Z,1.43
2019-06-08T09:02:21.098Z,2.30
2019-06-08T09:04:49.108Z,1.50
2019-06-08T09:07:19.179Z,1.47
2019-06-08T09:09:51.894Z,1.70
2019-06-08T09:12:22.007Z,1.53
2019-06-08T09:14:54.246Z,1.47
2019-06-08T09:17:23.877Z,1.40
2019-06-08T09:19:58.181Z,1.70
2019-06-08T09:22:28.143Z,2.00
2019-06-08T09:25:13.523Z,1.17
2019-06-08T09:27:44.595Z,1.53
2019-06-08T09:30:14.776Z,1.30
2019-06-08T09:32:44.857Z,2.20
2019-06-08T09:35:15.082Z,1.20
2019-06-08T09:37:48.382Z,1.50
2019-06-08T09:40:18.043Z,1.87
2019-06-08T09:42:50.821Z,1.33
2019-06-08T09:45:20.788Z,1.70
2019-06-08T09:47:50.857Z,1.50
2019-06-08T09:50:21.146Z,1.40
2019-06-08T09:53:06.170Z,2.10
2019-06-08T09:55:23.090Z,1.53
2019-06-08T09:57:55.084Z,1.77
2019-06-08T10:00:37.681Z,1.47
2019-06-08T10:03:09.262Z,1.83
2019-06-08T10:05:41.602Z,2.00
2019-06-08T10:08:11.652Z,1.50
2019-06-08T10:10:42.648Z,1.30
2019-06-08T10:13:12.714Z,1.87
2019-06-08T10:15:42.820Z,1.60
2019-06-08T10:18:12.902Z,1.90
2019-06-08T10:20:42.997Z,2.00
2019-06-08T10:23:30.237Z,1.67
2019-06-08T10:25:48.194Z,1.90
2019-06-08T10:28:21.487Z,1.37
2019-06-08T10:30:50.174Z,1.30
2019-06-08T10:33:20.264Z,2.70
2019-06-08T10:35:50.350Z,1.30
2019-06-08T10:38:20.435Z,1.20
2019-06-08T10:41:09.134Z,1.53
2019-06-08T10:43:38.282Z,1.50
2019-06-08T10:46:14.745Z,1.53
2019-06-08T10:48:39.515Z,1.57
2019-06-08T10:51:11.220Z,1.87
2019-06-08T10:53:48.425Z,2.00
2019-06-08T10:56:14.222Z,1.70
2019-06-08T10:58:49.451Z,1.43
2019-06-08T11:01:18.907Z,1.23
2019-06-08T11:03:50.062Z,1.67
2019-06-08T11:06:20.173Z,1.50
2019-06-08T11:08:50.926Z,1.27
2019-06-08T11:11:21.026Z,2.00
2019-06-08T11:13:51.118Z,1.47
2019-06-08T11:16:21.201Z,1.80
2019-06-08T11:18:51.337Z,1.60
2019-06-08T11:21:22.287Z,1.73
2019-06-08T11:24:05.589Z,1.80
2019-06-08T11:26:24.827Z,1.60
2019-06-08T11:28:55.116Z,1.50
2019-06-08T11:31:39.047Z,1.00
2019-06-08T11:34:09.918Z,2.13
2019-06-08T11:36:40.442Z,1.80
2019-06-08T11:39:14.747Z,1.80
2019-06-08T11:41:44.822Z,1.83
2019-06-08T11:44:15.572Z,1.50
2019-06-08T11:47:11.304Z,1.50
2019-06-08T11:49:47.985Z,1.50
2019-06-08T11:52:18.489Z,1.73
2019-06-08T11:54:54.570Z,1.60
2019-06-08T11:57:24.865Z,1.57
2019-06-08T11:59:58.460Z,1.77
2019-06-08T12:02:29.039Z,1.70
2019-06-08T12:04:59.125Z,1.20
2019-06-08T12:07:30.367Z,1.77
2019-06-08T12:10:00.576Z,1.50
2019-06-08T12:12:30.649Z,1.70
2019-06-08T12:15:00.726Z,1.50
2019-06-08T12:17:30.812Z,1.60
2019-06-08T12:20:00.897Z,1.87
2019-06-08T12:22:30.977Z,1.83
2019-06-08T12:25:01.063Z,1.07
2019-06-08T12:27:36.342Z,1.50
2019-06-08T12:30:09.128Z,1.63
2019-06-08T12:32:34.777Z,2.07
2019-06-08T12:35:08.150Z,1.53
2019-06-08T12:37:40.014Z,1.70
2019-06-08T12:40:13.224Z,1.37
2019-06-08T12:42:44.169Z,1.60
2019-06-08T12:45:20.483Z,1.67
2019-06-08T12:47:50.527Z,2.00
2019-06-08T12:50:20.610Z,1.43
2019-06-08T12:52:51.057Z,1.37
2019-06-08T12:55:25.044Z,1.90
2019-06-08T12:57:54.764Z,1.60
2019-06-08T13:00:28.069Z,1.50
2019-06-08T13:02:58.824Z,1.20
2019-06-08T13:05:28.885Z,2.00
2019-06-08T13:07:59.009Z,1.30
2019-06-08T13:10:48.073Z,1.43
2019-06-08T13:13:24.342Z,1.47
2019-06-08T13:15:53.077Z,1.63
2019-06-08T13:18:23.145Z,1.50
2019-06-08T13:21:16.676Z,1.40
2019-06-08T13:23:41.218Z,1.20
2019-06-08T13:26:13.794Z,1.33
2019-06-08T13:28:44.753Z,1.70
2019-06-08T13:31:18.527Z,1.70
2019-06-08T13:33:48.694Z,1.40
2019-06-08T13:36:26.126Z,1.33
2019-06-08T13:38:52.432Z,1.50
2019-06-08T13:41:25.971Z,1.17
2019-06-08T13:43:54.305Z,1.30
2019-06-08T13:46:27.845Z,1.20
2019-06-08T13:48:58.570Z,1.10
2019-06-08T13:51:29.794Z,1.00
2019-06-08T13:53:59.879Z,1.47
2019-06-08T13:56:29.970Z,1.10
2019-06-08T13:59:01.022Z,1.43
2019-06-08T14:01:31.206Z,1.03
2019-06-08T14:04:01.438Z,1.50
2019-06-08T14:06:31.635Z,1.37
2019-06-08T14:09:01.722Z,1.30
2019-06-08T14:11:32.755Z,0.90
2019-06-08T14:14:03.854Z,1.00
2019-06-08T14:16:38.728Z,1.00
2019-06-08T14:19:08.598Z,1.23
2019-06-08T14:21:41.879Z,0.90
2019-06-08T14:24:10.582Z,1.00
2019-06-08T14:26:40.646Z,1.03
2019-06-08T14:29:12.690Z,1.30
2019-06-08T14:31:45.783Z,0.90
2019-06-08T14:34:29.029Z,2.17
2019-06-08T14:37:05.526Z,1.23
2019-06-08T14:39:35.592Z,1.00
2019-06-08T14:42:08.278Z,1.10
2019-06-08T14:44:40.535Z,1.43
2019-06-08T14:47:13.704Z,1.10
2019-06-08T14:49:45.491Z,1.10
2019-06-08T14:52:15.710Z,0.80
2019-06-08T14:54:48.209Z,1.30
2019-06-08T14:57:18.206Z,0.80
2019-06-08T14:59:50.384Z,1.10
2019-06-08T15:02:21.203Z,1.10
2019-06-08T15:04:54.426Z,0.90
2019-06-08T15:07:26.115Z,1.03
2019-06-08T15:09:58.148Z,1.20
2019-06-08T15:12:29.847Z,1.10
2019-06-08T15:15:00.214Z,1.00
2019-06-08T15:17:32.079Z,0.80
2019-06-08T15:20:02.296Z,1.20
2019-06-08T15:22:33.322Z,1.30
2019-06-08T15:25:04.643Z,0.90
2019-06-08T15:27:34.730Z,1.00
2019-06-08T15:30:06.224Z,1.20
2019-06-08T15:32:38.579Z,1.10
2019-06-08T15:35:10.194Z,1.30
2019-06-08T15:37:40.863Z,0.90
2019-06-08T15:40:11.638Z,1.43
2019-06-08T15:42:41.726Z,0.90
2019-06-08T15:45:11.946Z,1.20
2019-06-08T15:47:42.022Z,1.20
2019-06-08T15:50:12.271Z,0.97
2019-06-08T15:52:43.046Z,1.43
2019-06-08T15:55:13.418Z,1.00
2019-06-08T15:57:43.502Z,1.33
2019-06-08T16:00:15.023Z,0.97
2019-06-08T16:02:51.003Z,1.00
2019-06-08T16:05:23.374Z,1.10
2019-06-08T16:07:56.357Z,1.10
2019-06-08T16:10:26.439Z,1.17
2019-06-08T16:12:56.514Z,1.50
2019-06-08T16:15:26.893Z,1.23
2019-06-08T16:18:04.713Z,0.90
2019-06-08T16:20:35.755Z,1.23
2019-06-08T16:23:06.798Z,1.43
2019-06-08T16:25:38.861Z,1.47
2019-06-08T16:28:08.660Z,1.10
2019-06-08T16:30:39.438Z,1.20
2019-06-08T16:33:09.602Z,1.20
2019-06-08T16:35:40.925Z,1.30
2019-06-08T16:38:12.943Z,1.00
2019-06-08T16:40:43.093Z,1.13
2019-06-08T16:43:13.186Z,1.10
2019-06-08T16:45:45.286Z,1.50
2019-06-08T16:48:15.370Z,1.87
2019-06-08T16:50:46.350Z,1.30
2019-06-08T16:53:16.430Z,1.27
2019-06-08T16:55:46.514Z,1.20
2019-06-08T16:58:16.582Z,2.40
2019-06-08T17:00:46.662Z,1.33
2019-06-08T17:03:16.739Z,1.27
2019-06-08T17:05:46.811Z,1.30
2019-06-08T17:08:16.890Z,0.90
2019-06-08T17:10:52.682Z,1.00
2019-06-08T17:13:22.773Z,1.20
2019-06-08T17:15:52.846Z,1.00
2019-06-08T17:18:23.715Z,1.07
2019-06-08T17:20:54.710Z,1.23
2019-06-08T17:23:25.082Z,1.10
2019-06-08T17:25:59.121Z,1.77
2019-06-08T17:28:30.652Z,1.00
2019-06-08T17:31:00.851Z,0.90
2019-06-08T17:33:39.929Z,2.03
2019-06-08T17:36:10.098Z,1.43
2019-06-08T17:38:41.490Z,1.20
2019-06-08T17:41:20.440Z,1.33
2019-06-08T17:43:50.498Z,1.30
2019-06-08T17:46:22.493Z,1.07
2019-06-08T17:48:52.716Z,1.17
2019-06-08T17:51:23.294Z,1.33
2019-06-08T17:53:53.378Z,1.00
2019-06-08T17:56:24.390Z,1.10
2019-06-08T17:58:54.462Z,1.27
2019-06-08T18:01:24.544Z,1.40
2019-06-08T18:03:57.453Z,1.60
2019-06-08T18:06:27.574Z,1.40
2019-06-08T18:08:58.725Z,1.27
2019-06-08T18:11:29.103Z,1.20
2019-06-08T18:13:59.174Z,1.30
2019-06-08T18:16:29.290Z,1.23
2019-06-08T18:18:59.376Z,1.60
2019-06-08T18:21:29.488Z,1.30
2019-06-08T18:24:00.530Z,1.40
2019-06-08T18:26:30.599Z,1.70
2019-06-08T18:29:02.611Z,1.50
2019-06-08T18:31:34.544Z,1.20
2019-06-08T18:34:04.626Z,1.10
2019-06-08T18:36:39.172Z,1.30
2019-06-08T18:39:09.319Z,1.50
2019-06-08T18:41:42.610Z,1.50
2019-06-08T18:44:17.402Z,1.10
2019-06-08T18:46:49.138Z,1.17
2019-06-08T18:49:19.220Z,1.40
2019-06-08T18:51:52.976Z,1.10
2019-06-08T18:54:23.062Z,1.40
2019-06-08T18:56:53.138Z,2.90
2019-06-08T18:59:25.152Z,1.33
2019-06-08T19:01:55.237Z,1.17
2019-06-08T19:04:32.192Z,1.23
2019-06-08T19:07:04.262Z,1.33
2019-06-08T19:09:37.506Z,1.57
2019-06-08T19:12:08.842Z,1.50
2019-06-08T19:14:40.374Z,1.57
2019-06-08T19:17:13.978Z,1.40
2019-06-08T19:19:48.453Z,1.57
2019-06-08T19:22:18.947Z,2.87
2019-06-08T19:24:50.641Z,4.27
2019-06-08T19:27:20.362Z,1.50
2019-06-08T19:29:51.717Z,4.63
2019-06-08T19:32:24.015Z,1.70
2019-06-08T19:34:57.945Z,1.57
2019-06-08T19:37:32.705Z,1.70
2019-06-08T19:40:01.964Z,2.30
2019-06-08T19:42:45.592Z,1.70
2019-06-08T19:45:11.167Z,1.60
2019-06-08T19:47:42.529Z,1.57
2019-06-08T19:50:12.830Z,2.10
2019-06-08T19:52:45.498Z,2.40
2019-06-08T19:55:15.040Z,2.70
2019-06-08T19:57:48.900Z,2.60
2019-06-08T20:00:18.279Z,2.20
2019-06-08T20:02:53.376Z,2.00
2019-06-08T20:05:21.075Z,1.77
2019-06-08T20:07:53.364Z,2.50
2019-06-08T20:10:23.762Z,3.43
2019-06-08T20:12:53.971Z,3.70
2019-06-08T20:15:25.036Z,2.80
2019-06-08T20:18:00.359Z,2.00
2019-06-08T20:20:30.447Z,1.77
2019-06-08T20:23:00.529Z,1.90
2019-06-08T20:25:32.574Z,1.80
2019-06-08T20:28:03.595Z,2.67
2019-06-08T20:30:34.635Z,2.10
2019-06-08T20:33:04.723Z,2.50
2019-06-08T20:35:37.542Z,2.07
2019-06-08T20:38:08.318Z,1.77
2019-06-08T20:40:42.104Z,2.00
2019-06-08T20:43:12.375Z,1.87
2019-06-08T20:45:42.456Z,2.40
2019-06-08T20:48:12.548Z,2.00
2019-06-08T20:50:44.342Z,1.70
2019-06-08T20:53:14.447Z,1.60
2019-06-08T20:55:45.183Z,1.93
2019-06-08T20:58:17.718Z,2.03
2019-06-08T21:00:50.130Z,2.70
2019-06-08T21:03:22.467Z,2.30
2019-06-08T21:05:55.075Z,3.00
2019-06-08T21:08:25.163Z,2.97
2019-06-08T21:10:58.506Z,2.97
2019-06-08T21:13:29.911Z,5.47
2019-06-08T21:16:07.623Z,4.80
2019-06-08T21:18:38.753Z,5.60
2019-06-08T21:21:13.192Z,10.23
2019-06-08T21:23:43.287Z,6.00
2019-06-08T21:26:13.394Z,5.33
2019-06-08T21:28:47.176Z,4.03
2019-06-08T21:31:22.339Z,3.50
2019-06-08T21:33:53.953Z,3.23
2019-06-08T21:36:25.136Z,2.37
2019-06-08T21:38:59.466Z,2.77
2019-06-08T21:41:27.958Z,2.13
2019-06-08T21:44:01.903Z,2.20
2019-06-08T21:46:37.977Z,2.80
2019-06-08T21:49:08.563Z,2.73
2019-06-08T21:51:38.683Z,2.90
2019-06-08T21:54:20.955Z,4.03
2019-06-08T21:56:53.115Z,3.40
2019-06-08T21:59:23.654Z,2.90
2019-06-08T22:01:55.088Z,2.70
2019-06-08T22:04:27.708Z,2.00
2019-06-08T22:06:59.714Z,2.97
2019-06-08T22:09:30.220Z,2.40
2019-06-08T22:12:00.981Z,3.00
2019-06-08T22:14:31.210Z,2.92
2019-06-08T22:17:03.387Z,3.40
2019-06-08T22:19:34.430Z,3.80
2019-06-08T22:22:04.515Z,2.80
2019-06-08T22:24:34.587Z,2.90
2019-06-08T22:27:07.040Z,3.30
2019-06-08T22:29:38.341Z,2.80
2019-06-08T22:32:08.431Z,2.87
2019-06-08T22:34:40.407Z,2.50
2019-06-08T22:37:10.472Z,4.80
2019-06-08T22:39:40.559Z,3.20
2019-06-08T22:42:10.643Z,3.10
2019-06-08T22:44:40.727Z,2.93
2019-06-08T22:47:10.811Z,2.37
2019-06-08T22:49:40.939Z,3.50
2019-06-08T22:52:18.618Z,2.85
2019-06-08T22:54:48.757Z,3.10
2019-06-08T22:57:20.715Z,2.63
2019-06-08T22:59:50.807Z,3.02
2019-06-08T23:02:20.895Z,3.25
2019-06-08T23:04:54.655Z,3.00
2019-06-08T23:07:32.645Z,2.90
2019-06-08T23:10:03.856Z,2.22
2019-06-08T23:12:33.143Z,2.47
2019-06-08T23:15:05.692Z,2.10
2019-06-08T23:17:39.759Z,2.70
2019-06-08T23:20:14.875Z,2.10
2019-06-08T23:22:47.372Z,2.60
2019-06-08T23:25:18.343Z,2.12
2019-06-08T23:27:48.577Z,2.60
2019-06-08T23:30:18.951Z,2.40
2019-06-08T23:32:54.731Z,2.33
2019-06-08T23:35:44.334Z,2.65
2019-06-08T23:38:03.014Z,2.10
2019-06-08T23:40:33.096Z,2.17
2019-06-08T23:43:04.263Z,2.62
2019-06-08T23:45:34.443Z,2.55
2019-06-08T23:48:04.724Z,2.62
2019-06-08T23:50:37.929Z,3.33
2019-06-08T23:53:10.880Z,2.70
2019-06-08T23:55:42.813Z,2.60
2019-06-08T23:58:18.902Z,2.37
